Weather at Charlotte Douglas International Airport

Public forecast

Using degrees Fahrenheit for public forecast. Weather courtesy of forecast.io.

Current aviation weather report (METAR) for Charlotte Douglas International Airport

Retrieved 2022/06/30 09:52 UTC (1 hour ago):

KCLT 300952Z 00000KT 10SM BKN250 21/19 A3025 RMK SLP233 T02060194

Aviation forecast (TAF) for Charlotte Douglas International Airport

Retrieved 2022/06/30 06:42 UTC (4 hours ago):

TAF KCLT 300539Z 3006/0112 VRB02KT P6SM BKN250 FM301100 VRB02KT 5SM BR BKN014 FM301300 16003KT P6SM BKN210 FM301800 15007KT P6SM BKN190 FM010400 17003KT P6SM BKN110